»·PEaware :: N408TF KBUR-KLGB

N408TF :: KBUR-KLGB

FLIGHT INFORMATION

Flight Status: Arrived
Operator: Privately registered:
United States
More flights under this callsign
Pilot: Dan S. (31216)
Aircraft: CESSNA 182 SKYLANE
(C182)
More flights by this aircraft type
Origin: KBUR Bob Hope-Burbank
United States
Destination: KLGB Long Beach
United States
More flights between these airports :: More routes between these airports
Route: +V186 ADAMM V394 SLI
File this flight plan on PilotEdge
Remarks:
Altitude:
(Current/Filed)
5,000ft
Speed:
(Current/Filed)
140kts
Departed: 18-Nov-20 10:11 PM
Arrived: 18-Nov-20 10:45 PM
Distance/Time
Traveled:
25nm/0:34
Distance/Time
To Go:
Arrived

Flight Plot

Page will automatically refresh every two minutes.


Map Options




Map Legend


Flown Route
Filed Route
Departure Airport
Arrival Airport
Navaid (VOR, NDB)
Fix

Horizontal Profiles

Position Reports

Time Latitude Longitude Heading Altitude Ground
Speed
18-Nov-20 21:58 34.200211 -118.358869 280 723ft 0kts
18-Nov-20 21:59 34.200211 -118.358870 280 723ft 0kts
18-Nov-20 22:00 34.200211 -118.358870 280 723ft 0kts
18-Nov-20 22:01 34.200211 -118.358870 280 723ft 0kts
18-Nov-20 22:02 34.200211 -118.358870 280 723ft 0kts
18-Nov-20 22:03 34.200211 -118.358870 280 723ft 0kts
18-Nov-20 22:04 34.200211 -118.358870 280 723ft 0kts
18-Nov-20 22:05 34.200211 -118.358870 280 723ft 0kts
18-Nov-20 22:06 34.200295 -118.359027 320 723ft 7kts
18-Nov-20 22:07 34.203962 -118.359291 342 734ft 16kts
18-Nov-20 22:08 34.208729 -118.360625 347 750ft 19kts
18-Nov-20 22:09 34.211782 -118.360952 59 762ft 19kts
18-Nov-20 22:10 34.195359 -118.352770 123 1555ft 91kts
18-Nov-20 22:11 34.180508 -118.326642 125 2642ft 97kts
18-Nov-20 22:12 34.165053 -118.299750 126 3594ft 98kts
18-Nov-20 22:13 34.154698 -118.268844 112 4620ft 100kts
18-Nov-20 22:14 34.143546 -118.231967 113 4993ft 139kts
18-Nov-20 22:15 34.129927 -118.186557 113 4989ft 145kts
18-Nov-20 22:16 34.116146 -118.140521 113 4970ft 147kts
18-Nov-20 22:17 34.102276 -118.094191 113 4944ft 146kts
18-Nov-20 22:18 34.088240 -118.048134 113 4944ft 145kts
18-Nov-20 22:19 34.074147 -118.002262 113 4944ft 145kts
18-Nov-20 22:20 34.060051 -117.956450 113 4944ft 145kts
18-Nov-20 22:21 34.045636 -117.909721 113 4837ft 147kts
18-Nov-20 22:23 34.031799 -117.864655 113 4944ft 144kts
18-Nov-20 22:24 34.011160 -117.826504 176 4754ft 144kts
18-Nov-20 22:25 33.973288 -117.838211 203 4049ft 140kts
18-Nov-20 22:26 33.937667 -117.855338 202 3719ft 131kts
18-Nov-20 22:27 33.904842 -117.871165 202 3985ft 125kts
18-Nov-20 22:28 33.868900 -117.875654 182 4000ft 134kts
18-Nov-20 22:29 33.831657 -117.875732 181 4000ft 135kts
18-Nov-20 22:30 33.797486 -117.875728 181 4000ft 135kts
18-Nov-20 22:31 33.761090 -117.875720 181 4000ft 135kts
18-Nov-20 22:32 33.722987 -117.875844 181 4000ft 138kts
18-Nov-20 22:33 33.684418 -117.875762 181 4000ft 139kts
18-Nov-20 22:34 33.645507 -117.875659 181 4000ft 139kts
18-Nov-20 22:35 33.608024 -117.880143 233 3993ft 135kts
18-Nov-20 22:36 33.624011 -117.917534 311 4000ft 137kts
18-Nov-20 22:37 33.650736 -117.949979 312 4000ft 137kts
18-Nov-20 22:38 33.678080 -117.982872 313 3705ft 143kts
18-Nov-20 22:39 33.706207 -118.016735 312 2976ft 143kts
18-Nov-20 22:40 33.734069 -118.050295 313 2207ft 141kts
18-Nov-20 22:41 33.761169 -118.082955 312 1459ft 123kts
18-Nov-20 22:42 33.780152 -118.105921 310 918ft 88kts
18-Nov-20 22:43 33.796427 -118.125526 311 475ft 80kts
18-Nov-20 22:43 33.808422 -118.139999 310 107ft 66kts
18-Nov-20 22:45 33.814929 -118.149423 270 39ft 6kts
18-Nov-20 22:46 33.814929 -118.149466 270 39ft 0kts
18-Nov-20 22:46 33.814135 -118.150999 182 42ft 15kts
18-Nov-20 22:48 33.812722 -118.153386 271 45ft 0kts

Navigation Log

Ident Type
Flight plan parsing failed, navigation log unavailable